Terminal Aerodrome Forecast
Issued by NWS

Home | Current Version | Previous Version | Text Only | Print | Product List | Glossary On
Versions: 1 2 3 4 5 6 7 8 9 10 11 12 13 14 15 16 17 18 19 20 21 22 23 24 25 26
000
FTUS41 KRNK 272341 RRA
TAFBCB
TAF
KBCB 272341Z 2800/2818 25007KT P6SM SCT050 BKN150 OVC250
     FM280300 25007KT P6SM VCTS BKN045CB OVC070
      TEMPO 2803/2806 4SM -SHRA BR BKN030
     FM280600 27012G22KT P6SM OVC030
     FM281400 28015G27KT P6SM BKN035=

USA.gov is the U.S. government's official web portal to all federal, state and local government web resources and services.